createdAt,value
2022-10-15T00:00:51.664Z,7.40
2022-10-15T00:03:26.817Z,7.60
2022-10-15T00:05:56.841Z,7.70
2022-10-15T00:08:27.900Z,7.65
2022-10-15T00:11:05.148Z,8.00
2022-10-15T00:13:36.678Z,7.88
2022-10-15T00:16:10.935Z,7.07
2022-10-15T00:18:44.890Z,7.22
2022-10-15T00:21:18.272Z,7.65
2022-10-15T00:23:52.031Z,7.60
2022-10-15T00:26:22.980Z,7.38
2022-10-15T00:28:55.797Z,7.82
2022-10-15T00:31:28.862Z,7.53
2022-10-15T00:34:02.924Z,7.53
2022-10-15T00:36:34.225Z,7.13
2022-10-15T00:39:10.615Z,7.10
2022-10-15T00:41:47.302Z,7.43
2022-10-15T00:44:21.829Z,7.05
2022-10-15T00:46:54.676Z,7.28
2022-10-15T00:49:24.725Z,7.10
2022-10-15T00:52:02.391Z,7.30
2022-10-15T00:54:37.524Z,7.30
2022-10-15T00:57:09.734Z,7.10
2022-10-15T00:59:42.062Z,7.07
2022-10-15T01:02:16.040Z,7.47
2022-10-15T01:04:46.880Z,7.18
2022-10-15T01:07:20.458Z,7.30
2022-10-15T01:09:54.171Z,7.28
2022-10-15T01:12:43.899Z,6.32
2022-10-15T01:15:24.639Z,7.35
2022-10-15T01:18:10.691Z,6.93
2022-10-15T01:20:53.032Z,7.13
2022-10-15T01:23:48.648Z,7.10
2022-10-15T01:26:39.813Z,6.82
2022-10-15T01:29:29.385Z,6.55
2022-10-15T01:32:07.743Z,6.63
2022-10-15T01:34:42.869Z,6.40
2022-10-15T01:37:22.376Z,6.70
2022-10-15T01:40:04.320Z,7.20
2022-10-15T01:42:46.658Z,6.53
2022-10-15T01:45:24.432Z,6.60
2022-10-15T01:48:16.911Z,6.75
2022-10-15T01:50:55.782Z,6.28
2022-10-15T01:53:28.199Z,7.10
2022-10-15T01:56:04.734Z,6.78
2022-10-15T01:58:40.275Z,6.57
2022-10-15T02:01:10.905Z,5.93
2022-10-15T02:03:54.039Z,6.53
2022-10-15T02:06:41.527Z,6.82
2022-10-15T02:09:26.105Z,7.00
2022-10-15T02:12:01.397Z,6.82
2022-10-15T02:14:42.885Z,6.65
2022-10-15T02:17:11.762Z,6.10
2022-10-15T02:19:53.948Z,6.63
2022-10-15T02:22:32.799Z,6.28
2022-10-15T02:25:16.293Z,6.38
2022-10-15T02:27:55.391Z,6.15
2022-10-15T02:30:27.230Z,6.72
2022-10-15T02:33:00.444Z,6.13
2022-10-15T02:35:35.770Z,6.28
2022-10-15T02:40:44.695Z,6.32
2022-10-15T02:43:21.556Z,6.05
2022-10-15T02:45:51.394Z,6.43
2022-10-15T02:48:23.232Z,6.38
2022-10-15T02:50:53.768Z,6.10
2022-10-15T02:53:21.982Z,6.63
2022-10-15T02:55:59.552Z,6.35
2022-10-15T02:58:32.208Z,6.25
2022-10-15T03:01:02.135Z,6.57
2022-10-15T03:03:35.728Z,6.18
2022-10-15T03:06:09.019Z,6.32
2022-10-15T03:08:42.445Z,6.43
2022-10-15T03:11:13.007Z,6.10
2022-10-15T03:13:43.034Z,6.28
2022-10-15T03:16:15.870Z,6.35
2022-10-15T03:18:48.142Z,5.90
2022-10-15T03:21:17.076Z,6.43
2022-10-15T03:23:51.270Z,6.13
2022-10-15T03:26:26.153Z,5.85
2022-10-15T03:29:02.860Z,5.90
2022-10-15T03:31:36.191Z,5.97
2022-10-15T03:34:11.490Z,6.03
2022-10-15T03:36:44.809Z,6.15
2022-10-15T03:39:15.592Z,6.20
2022-10-15T03:41:45.829Z,5.82
2022-10-15T03:44:26.959Z,6.30
2022-10-15T03:47:10.570Z,5.82
2022-10-15T03:49:49.304Z,6.05
2022-10-15T03:52:25.928Z,5.90
2022-10-15T03:54:56.083Z,6.28
2022-10-15T03:57:28.951Z,6.55
2022-10-15T04:00:05.548Z,5.82
2022-10-15T04:02:43.057Z,5.63
2022-10-15T04:05:25.572Z,6.30
2022-10-15T04:08:00.868Z,5.13
2022-10-15T04:10:35.845Z,5.55
2022-10-15T04:13:03.256Z,5.68
2022-10-15T04:15:39.437Z,5.85
2022-10-15T04:18:16.135Z,5.72
2022-10-15T04:20:50.049Z,5.43
2022-10-15T04:23:24.611Z,6.38
2022-10-15T04:26:13.250Z,5.75
2022-10-15T04:28:48.213Z,5.80
2022-10-15T04:31:16.435Z,5.57
2022-10-15T04:33:49.363Z,6.10
2022-10-15T04:36:21.965Z,5.07
2022-10-15T04:39:00.927Z,6.10
2022-10-15T04:41:53.042Z,5.73
2022-10-15T04:44:35.988Z,5.47
2022-10-15T04:49:42.406Z,6.25
2022-10-15T04:52:36.250Z,5.60
2022-10-15T04:55:13.380Z,6.00
2022-10-15T04:57:46.534Z,5.50
2022-10-15T05:00:19.606Z,5.43
2022-10-15T05:03:04.434Z,5.75
2022-10-15T05:05:41.272Z,5.78
2022-10-15T05:08:12.309Z,6.28
2022-10-15T05:11:07.006Z,5.40
2022-10-15T05:13:37.559Z,5.63
2022-10-15T05:16:12.701Z,6.07
2022-10-15T05:18:43.739Z,5.93
2022-10-15T05:21:15.199Z,6.10
2022-10-15T05:23:50.580Z,5.70
2022-10-15T05:26:41.037Z,5.50
2022-10-15T05:29:12.706Z,5.10
2022-10-15T05:31:43.126Z,6.00
2022-10-15T05:34:30.502Z,5.80
2022-10-15T05:37:18.290Z,8.60
2022-10-15T05:39:52.112Z,13.80
2022-10-15T05:42:22.624Z,14.13
2022-10-15T05:45:04.214Z,15.85
2022-10-15T05:47:37.850Z,16.38
2022-10-15T05:50:15.456Z,14.70
2022-10-15T05:52:52.441Z,17.10
2022-10-15T05:55:38.889Z,17.02
2022-10-15T05:58:17.858Z,16.63
2022-10-15T06:00:57.319Z,18.67
2022-10-15T06:03:28.435Z,18.63
2022-10-15T06:05:59.039Z,18.25
2022-10-15T06:08:30.525Z,19.15
2022-10-15T06:11:09.655Z,19.95
2022-10-15T06:13:45.326Z,19.60
2022-10-15T06:16:24.235Z,19.65
2022-10-15T06:18:57.658Z,21.10
2022-10-15T06:21:34.247Z,19.98
2022-10-15T06:24:13.178Z,19.23
2022-10-15T06:26:41.686Z,19.10
2022-10-15T06:29:10.488Z,20.83
2022-10-15T06:31:54.761Z,18.60
2022-10-15T06:34:30.581Z,21.42
2022-10-15T06:37:00.774Z,20.85
2022-10-15T06:39:34.254Z,19.85
2022-10-15T06:44:42.887Z,18.98
2022-10-15T06:47:10.948Z,19.70
2022-10-15T06:49:49.203Z,19.63
2022-10-15T06:52:25.256Z,20.80
2022-10-15T06:55:01.563Z,20.73
2022-10-15T06:57:32.617Z,21.33
2022-10-15T07:00:06.679Z,20.25
2022-10-15T07:02:38.893Z,20.17
2022-10-15T07:05:10.036Z,19.00
2022-10-15T07:07:40.896Z,19.10
2022-10-15T07:10:12.710Z,20.95
2022-10-15T07:12:46.029Z,19.27
2022-10-15T07:15:22.208Z,20.88
2022-10-15T07:18:01.955Z,20.15
2022-10-15T07:20:33.639Z,21.30
2022-10-15T07:23:07.845Z,20.35
2022-10-15T07:25:48.253Z,20.50
2022-10-15T07:28:21.241Z,19.55
2022-10-15T07:30:53.652Z,20.48
2022-10-15T07:33:21.731Z,19.88
2022-10-15T07:36:06.006Z,19.52
2022-10-15T07:38:42.026Z,19.25
2022-10-15T07:41:17.253Z,19.92
2022-10-15T07:43:51.938Z,19.92
2022-10-15T07:46:31.538Z,18.98
2022-10-15T07:49:05.391Z,19.92
2022-10-15T07:51:46.644Z,22.38
2022-10-15T07:54:25.398Z,20.55
2022-10-15T07:57:05.911Z,21.42
2022-10-15T07:59:39.556Z,22.55
2022-10-15T08:02:22.859Z,20.70
2022-10-15T08:04:59.366Z,20.73
2022-10-15T08:07:38.328Z,21.15
2022-10-15T08:10:22.064Z,21.23
2022-10-15T08:13:00.285Z,19.70
2022-10-15T08:15:34.653Z,20.27
2022-10-15T08:18:05.418Z,21.90
2022-10-15T08:20:45.474Z,21.83
2022-10-15T08:23:17.462Z,20.60
2022-10-15T08:25:56.889Z,20.63
2022-10-15T08:28:36.956Z,20.60
2022-10-15T08:31:08.803Z,20.98
2022-10-15T08:33:46.668Z,22.35
2022-10-15T08:36:29.109Z,21.25
2022-10-15T08:39:02.664Z,22.92
2022-10-15T08:41:48.144Z,20.67
2022-10-15T08:45:12.773Z,21.88
2022-10-15T08:47:53.459Z,21.42
2022-10-15T08:50:35.672Z,22.23
2022-10-15T08:53:11.805Z,20.90
2022-10-15T08:55:58.010Z,22.00
2022-10-15T08:59:05.079Z,21.15
2022-10-15T09:01:53.731Z,20.88
2022-10-15T09:04:35.510Z,20.50
2022-10-15T09:07:25.406Z,19.85
2022-10-15T09:10:15.596Z,20.15
2022-10-15T09:13:13.962Z,20.77
2022-10-15T09:15:54.859Z,19.73
2022-10-15T09:18:35.708Z,20.77
2022-10-15T09:21:09.893Z,21.20
2022-10-15T09:23:47.031Z,20.33
2022-10-15T09:26:47.642Z,18.92
2022-10-15T09:29:33.530Z,19.63
2022-10-15T09:32:35.696Z,19.15
2022-10-15T09:35:21.807Z,19.40
2022-10-15T09:38:15.746Z,20.35
2022-10-15T09:41:16.966Z,19.55
2022-10-15T09:43:48.760Z,19.55
2022-10-15T09:46:17.575Z,18.92
2022-10-15T09:49:19.032Z,19.48
2022-10-15T09:52:28.553Z,20.00
2022-10-15T09:55:28.073Z,19.65
2022-10-15T09:57:59.815Z,17.98
2022-10-15T10:01:09.050Z,19.63
2022-10-15T10:03:47.558Z,19.40
2022-10-15T10:06:21.530Z,19.65
2022-10-15T10:09:01.115Z,17.40
2022-10-15T10:11:51.287Z,18.48
2022-10-15T10:14:31.417Z,18.80
2022-10-15T10:17:05.105Z,21.33
2022-10-15T10:19:39.306Z,22.08
2022-10-15T10:22:19.369Z,22.67
2022-10-15T10:24:50.165Z,22.38
2022-10-15T10:27:46.818Z,19.05
2022-10-15T10:30:15.529Z,19.05
2022-10-15T10:32:51.205Z,20.58
2022-10-15T10:35:28.616Z,21.70
2022-10-15T10:37:57.534Z,20.65
2022-10-15T10:40:38.918Z,21.75
2022-10-15T10:43:16.179Z,21.67
2022-10-15T10:46:04.136Z,21.25
2022-10-15T10:48:54.245Z,19.40
2022-10-15T10:51:25.539Z,20.40
2022-10-15T10:54:04.589Z,20.30
2022-10-15T10:56:40.764Z,19.95
2022-10-15T10:59:45.539Z,19.05
2022-10-15T11:02:16.735Z,17.63
2022-10-15T11:04:47.895Z,16.50
2022-10-15T11:07:22.501Z,16.65
2022-10-15T11:09:56.484Z,15.80
2022-10-15T11:13:17.872Z,15.75
2022-10-15T11:16:04.377Z,15.32
2022-10-15T11:19:13.696Z,15.00
2022-10-15T11:22:24.253Z,13.32
2022-10-15T11:25:09.142Z,12.75
2022-10-15T11:27:54.088Z,13.02
2022-10-15T11:31:03.467Z,11.75
2022-10-15T11:33:39.223Z,11.82
2022-10-15T11:36:24.950Z,10.98
2022-10-15T11:39:25.547Z,12.50
2022-10-15T11:41:53.157Z,11.48
2022-10-15T11:44:34.643Z,11.18
2022-10-15T11:47:19.599Z,11.18
2022-10-15T11:50:06.336Z,11.30
2022-10-15T11:52:49.172Z,10.40
2022-10-15T11:55:32.697Z,10.38
2022-10-15T11:58:22.073Z,10.88
2022-10-15T12:00:53.906Z,10.38
2022-10-15T12:03:31.791Z,9.75
2022-10-15T12:06:05.799Z,10.18
2022-10-15T12:08:39.413Z,9.57
2022-10-15T12:11:25.168Z,8.43
2022-10-15T12:14:02.749Z,9.25
2022-10-15T12:16:42.824Z,8.80
2022-10-15T12:19:20.931Z,9.18
2022-10-15T12:21:56.801Z,8.43
2022-10-15T12:24:52.346Z,8.82
2022-10-15T12:27:20.768Z,8.50
2022-10-15T12:30:11.821Z,8.95
2022-10-15T12:32:48.897Z,7.95
2022-10-15T12:35:19.703Z,8.93
2022-10-15T12:37:58.171Z,8.43
2022-10-15T12:40:31.644Z,8.02
2022-10-15T12:43:17.713Z,8.75
2022-10-15T12:46:00.241Z,8.27
2022-10-15T12:48:33.197Z,7.93
2022-10-15T12:51:21.661Z,8.15
2022-10-15T12:53:57.800Z,8.48
2022-10-15T12:56:41.856Z,8.60
2022-10-15T12:59:29.852Z,8.35
2022-10-15T13:02:00.462Z,8.48
2022-10-15T13:04:38.273Z,8.60
2022-10-15T13:07:09.835Z,7.78
2022-10-15T13:09:39.695Z,7.90
2022-10-15T13:12:27.127Z,8.02
2022-10-15T13:15:06.435Z,7.60
2022-10-15T13:17:39.460Z,8.30
2022-10-15T13:20:31.221Z,7.72
2022-10-15T13:23:34.961Z,8.52
2022-10-15T13:26:22.229Z,7.87
2022-10-15T13:28:52.826Z,8.30
2022-10-15T13:31:35.218Z,7.88
2022-10-15T13:34:28.892Z,8.32
2022-10-15T13:37:07.275Z,8.02
2022-10-15T13:39:40.040Z,8.52
2022-10-15T13:42:32.653Z,7.90
2022-10-15T13:45:04.934Z,8.57
2022-10-15T13:47:37.607Z,8.13
2022-10-15T13:50:37.363Z,7.82
2022-10-15T13:53:29.229Z,7.90
2022-10-15T13:56:01.783Z,8.50
2022-10-15T13:58:44.703Z,8.52
2022-10-15T14:01:20.516Z,7.80
2022-10-15T14:03:52.382Z,7.90
2022-10-15T14:06:33.668Z,8.40
2022-10-15T14:09:27.061Z,8.50
2022-10-15T14:11:59.073Z,8.70
2022-10-15T14:14:41.715Z,8.48
2022-10-15T14:17:17.661Z,8.98
2022-10-15T14:20:25.225Z,8.95
2022-10-15T14:22:50.109Z,8.35
2022-10-15T14:25:28.004Z,8.73
2022-10-15T14:27:59.247Z,9.50
2022-10-15T14:30:39.729Z,9.10
2022-10-15T14:33:41.785Z,9.50
2022-10-15T14:36:19.621Z,9.77
2022-10-15T14:38:51.572Z,9.88
2022-10-15T14:41:25.867Z,9.95
2022-10-15T14:44:17.846Z,9.93
2022-10-15T14:46:49.451Z,9.18
2022-10-15T14:49:35.791Z,9.70
2022-10-15T14:52:19.467Z,10.00
2022-10-15T14:55:16.362Z,9.15
2022-10-15T14:57:50.341Z,9.70
2022-10-15T15:00:26.572Z,10.48
2022-10-15T15:03:09.638Z,9.95
2022-10-15T15:05:55.099Z,11.10
2022-10-15T15:08:23.616Z,11.55
2022-10-15T15:10:53.081Z,12.07
2022-10-15T15:13:24.737Z,13.88
2022-10-15T15:15:55.459Z,13.40
2022-10-15T15:18:25.547Z,13.45
2022-10-15T15:20:53.050Z,13.82
2022-10-15T15:23:32.868Z,13.77
2022-10-15T15:26:03.458Z,13.45
2022-10-15T15:28:33.307Z,14.85
2022-10-15T15:31:09.964Z,14.80
2022-10-15T15:33:43.093Z,14.52
2022-10-15T15:36:22.406Z,14.00
2022-10-15T15:39:01.173Z,14.93
2022-10-15T15:41:28.720Z,15.50
2022-10-15T15:43:57.087Z,14.88
2022-10-15T15:46:27.427Z,16.10
2022-10-15T15:48:59.158Z,14.93
2022-10-15T15:51:28.980Z,15.45
2022-10-15T15:53:56.996Z,15.13
2022-10-15T15:56:25.238Z,15.52
2022-10-15T15:58:58.119Z,14.32
2022-10-15T16:01:30.724Z,15.77
2022-10-15T16:04:03.320Z,15.18
2022-10-15T16:06:33.598Z,15.40
2022-10-15T16:09:05.545Z,15.18
2022-10-15T16:11:40.574Z,14.18
2022-10-15T16:14:09.405Z,15.52
2022-10-15T16:16:44.742Z,15.45
2022-10-15T16:19:17.094Z,14.57
2022-10-15T16:21:47.045Z,14.77
2022-10-15T16:24:14.524Z,14.82
2022-10-15T16:26:47.482Z,13.73
2022-10-15T16:29:20.087Z,14.75
2022-10-15T16:31:55.403Z,14.40
2022-10-15T16:34:23.002Z,14.90
2022-10-15T16:36:58.359Z,14.82
2022-10-15T16:39:27.122Z,14.60
2022-10-15T16:41:56.755Z,14.52
2022-10-15T16:44:26.287Z,14.38
2022-10-15T16:46:53.739Z,14.07
2022-10-15T16:49:28.986Z,13.50
2022-10-15T16:51:59.154Z,14.55
2022-10-15T16:54:29.289Z,15.07
2022-10-15T16:57:04.174Z,14.27
2022-10-15T16:59:34.323Z,13.18
2022-10-15T17:02:10.530Z,13.43
2022-10-15T17:04:42.107Z,14.38
2022-10-15T17:07:10.031Z,13.80
2022-10-15T17:09:40.929Z,13.90
2022-10-15T17:12:11.621Z,14.50
2022-10-15T17:14:41.700Z,13.70
2022-10-15T17:17:14.431Z,14.63
2022-10-15T17:19:44.571Z,14.40
2022-10-15T17:22:12.007Z,14.07
2022-10-15T17:24:41.467Z,13.88
2022-10-15T17:27:08.909Z,14.52
2022-10-15T17:29:40.726Z,14.50
2022-10-15T17:32:13.248Z,14.48
2022-10-15T17:34:43.559Z,14.52
2022-10-15T17:37:16.715Z,14.68
2022-10-15T17:39:47.690Z,15.40
2022-10-15T17:42:18.782Z,14.65
2022-10-15T17:44:48.965Z,15.05
2022-10-15T17:47:28.957Z,14.88
2022-10-15T17:49:59.492Z,15.07
2022-10-15T17:52:29.829Z,14.95
2022-10-15T17:54:57.413Z,14.10
2022-10-15T17:57:25.339Z,14.52
2022-10-15T17:59:55.815Z,15.23
2022-10-15T18:02:32.074Z,15.10
2022-10-15T18:05:04.462Z,14.20
2022-10-15T18:07:32.457Z,14.82
2022-10-15T18:10:01.677Z,14.13
2022-10-15T18:12:29.079Z,14.75
2022-10-15T18:14:59.106Z,14.27
2022-10-15T18:17:29.080Z,14.55
2022-10-15T18:20:03.059Z,14.50
2022-10-15T18:22:36.944Z,14.32
2022-10-15T18:25:07.233Z,14.32
2022-10-15T18:27:37.075Z,13.68
2022-10-15T18:30:07.983Z,13.85
2022-10-15T18:32:37.853Z,14.10
2022-10-15T18:35:09.347Z,14.93
2022-10-15T18:37:45.120Z,14.35
2022-10-15T18:40:12.658Z,14.18
2022-10-15T18:42:47.796Z,14.07
2022-10-15T18:45:23.349Z,14.40
2022-10-15T18:47:51.805Z,15.00
2022-10-15T18:50:23.969Z,14.10
2022-10-15T18:52:54.756Z,16.75
2022-10-15T18:55:32.032Z,17.38
2022-10-15T18:58:04.936Z,16.30
2022-10-15T19:00:40.564Z,16.52
2022-10-15T19:03:19.094Z,16.63
2022-10-15T19:05:51.815Z,16.50
2022-10-15T19:08:25.860Z,16.88
2022-10-15T19:10:55.481Z,16.15
2022-10-15T19:13:22.966Z,16.55
2022-10-15T19:15:54.460Z,16.70
2022-10-15T19:18:28.563Z,16.63
2022-10-15T19:20:58.550Z,16.65
2022-10-15T19:23:29.208Z,17.40
2022-10-15T19:25:58.006Z,16.73
2022-10-15T19:28:29.217Z,17.27
2022-10-15T19:31:05.274Z,16.25
2022-10-15T19:33:36.827Z,17.30
2022-10-15T19:36:10.602Z,17.27
2022-10-15T19:38:42.448Z,17.25
2022-10-15T19:41:12.711Z,17.35
2022-10-15T19:43:40.491Z,17.27
2022-10-15T19:46:11.563Z,17.42
2022-10-15T19:48:44.293Z,17.60
2022-10-15T19:51:12.201Z,17.50
2022-10-15T19:53:44.707Z,17.00
2022-10-15T19:56:19.596Z,19.08
2022-10-15T19:58:47.151Z,19.25
2022-10-15T20:01:20.305Z,17.98
2022-10-15T20:03:54.723Z,18.20
2022-10-15T20:06:22.798Z,18.58
2022-10-15T20:08:50.329Z,18.27
2022-10-15T20:11:26.686Z,18.17
2022-10-15T20:13:54.287Z,18.48
2022-10-15T20:16:25.547Z,18.92
2022-10-15T20:19:00.667Z,19.10
2022-10-15T20:21:28.648Z,19.70
2022-10-15T20:24:06.616Z,19.17
2022-10-15T20:26:35.017Z,18.60
2022-10-15T20:29:03.499Z,19.00
2022-10-15T20:31:35.113Z,18.52
2022-10-15T20:34:07.482Z,18.85
2022-10-15T20:36:41.641Z,18.73
2022-10-15T20:39:12.408Z,19.48
2022-10-15T20:41:42.672Z,19.42
2022-10-15T20:44:15.358Z,19.85
2022-10-15T20:46:57.277Z,18.90
2022-10-15T20:49:35.354Z,20.15
2022-10-15T20:52:09.852Z,19.25
2022-10-15T20:54:45.339Z,21.05
2022-10-15T20:57:18.477Z,19.70
2022-10-15T20:59:49.010Z,20.02
2022-10-15T21:02:21.211Z,19.98
2022-10-15T21:04:53.406Z,19.45
2022-10-15T21:09:55.672Z,19.58
2022-10-15T21:12:29.012Z,18.80
2022-10-15T21:14:57.376Z,21.02
2022-10-15T21:17:28.498Z,21.70
2022-10-15T21:20:01.483Z,21.48
2022-10-15T21:22:31.751Z,21.17
2022-10-15T21:25:01.207Z,21.83
2022-10-15T21:27:36.899Z,23.17
2022-10-15T21:30:08.383Z,21.95
2022-10-15T21:32:42.977Z,22.40
2022-10-15T21:35:11.381Z,22.80
2022-10-15T21:37:44.197Z,22.30
2022-10-15T21:40:17.444Z,24.85
2022-10-15T21:42:50.449Z,25.20
2022-10-15T21:45:20.765Z,23.30
2022-10-15T21:47:56.026Z,25.13
2022-10-15T21:50:28.654Z,24.02
2022-10-15T21:53:03.723Z,23.88
2022-10-15T21:55:31.354Z,23.00
2022-10-15T21:58:06.454Z,25.20
2022-10-15T22:00:41.405Z,24.85
2022-10-15T22:03:11.817Z,25.38
2022-10-15T22:05:44.046Z,25.80
2022-10-15T22:08:14.028Z,25.40
2022-10-15T22:10:41.380Z,24.42
2022-10-15T22:13:14.429Z,24.98
2022-10-15T22:15:47.473Z,24.60
2022-10-15T22:18:17.313Z,23.25
2022-10-15T22:20:49.925Z,24.08
2022-10-15T22:23:27.662Z,24.15
2022-10-15T22:26:01.283Z,25.05
2022-10-15T22:28:30.972Z,26.25
2022-10-15T22:31:09.298Z,25.10
2022-10-15T22:33:43.362Z,25.02
2022-10-15T22:36:16.596Z,25.45
2022-10-15T22:38:48.290Z,24.70
2022-10-15T22:41:22.101Z,25.63
2022-10-15T22:43:52.471Z,25.40
2022-10-15T22:46:22.385Z,24.17
2022-10-15T22:48:49.798Z,24.83
2022-10-15T22:51:17.763Z,24.35
2022-10-15T22:53:50.320Z,25.05
2022-10-15T22:59:00.251Z,22.27
2022-10-15T23:01:32.818Z,23.15
2022-10-15T23:04:03.532Z,23.70
2022-10-15T23:06:36.968Z,22.40
2022-10-15T23:09:11.195Z,23.10
2022-10-15T23:11:42.213Z,22.35
2022-10-15T23:14:19.510Z,22.42
2022-10-15T23:16:49.839Z,22.55
2022-10-15T23:19:23.728Z,22.90
2022-10-15T23:22:03.497Z,21.95
2022-10-15T23:24:33.550Z,22.08
2022-10-15T23:27:03.912Z,21.33
2022-10-15T23:29:37.180Z,22.13
2022-10-15T23:32:12.761Z,21.20
2022-10-15T23:34:45.384Z,21.20
2022-10-15T23:37:17.884Z,21.13
2022-10-15T23:39:53.961Z,20.77
2022-10-15T23:42:24.754Z,20.98
2022-10-15T23:44:55.013Z,20.08
2022-10-15T23:47:25.685Z,20.98
2022-10-15T23:50:00.414Z,19.42
2022-10-15T23:55:01.529Z,20.15
2022-10-15T23:57:33.832Z,20.27
